Time;durP1;ratioP1;P1;durP2;ratioP2;P2;SDS_P1;SDS_P2;PMS_P1;PMS_P2;Temp;Humidity;BMP_temperature;BMP_pressure;BME280_temperature;BME280_humidity;BME280_pressure;Samples;Min_cycle;Max_cycle;Signal;HPM_P1;HPM_P2
2022/08/28 00:01:31;;;;;;;;;;;18.60;99.90;;;;;;5111576;28;20401;-80
2022/08/28 00:03:58;;;;;;;;;;;18.60;99.90;;;;;;5102178;28;19947;-80
2022/08/28 00:06:25;;;;;;;;;;;18.60;99.90;;;;;;5084027;28;19946;-80
2022/08/28 00:08:52;;;;;;;;;;;18.50;99.90;;;;;;5091556;28;20035;-80
2022/08/28 00:11:19;;;;;;;;;;;18.60;99.90;;;;;;5083166;28;19928;-80
2022/08/28 00:13:48;;;;;;;;;;;18.50;99.90;;;;;;5101924;28;19924;-80
2022/08/28 00:16:16;;;;;;;;;;;18.50;99.90;;;;;;5091459;28;19978;-83
2022/08/28 00:18:43;;;;;;;;;;;18.50;99.90;;;;;;5085947;28;20532;-80
2022/08/28 00:21:10;;;;;;;;;;;18.40;99.90;;;;;;5102090;28;19958;-80
2022/08/28 00:23:37;;;;;;;;;;;18.50;99.90;;;;;;5086171;28;19928;-80
2022/08/28 00:26:04;;;;;;;;;;;18.40;99.90;;;;;;5083054;28;19935;-81
2022/08/28 00:28:30;;;;;;;;;;;18.40;99.90;;;;;;5089373;28;19928;-81
2022/08/28 00:30:58;;;;;;;;;;;18.40;99.90;;;;;;5092799;28;19920;-80
2022/08/28 00:33:27;;;;;;;;;;;18.30;99.90;;;;;;5094292;28;20001;-81
2022/08/28 00:35:54;;;;;;;;;;;18.30;99.90;;;;;;5106971;28;19982;-80
2022/08/28 00:38:22;;;;;;;;;;;18.30;99.90;;;;;;5090287;28;20014;-80
2022/08/28 00:40:50;;;;;;;;;;;18.20;99.90;;;;;;5075691;28;19936;-80
2022/08/28 00:43:22;;;;;;;;;;;18.20;99.90;;;;;;5090190;28;19928;-79
2022/08/28 00:45:52;;;;;;;;;;;18.20;99.90;;;;;;5078988;28;19924;-79
2022/08/28 00:48:20;;;;;;;;;;;18.10;99.90;;;;;;5089501;28;20446;-79
2022/08/28 00:53:37;;;;;;;;;;;18.00;99.90;;;;;;5033283;28;19932;-79
2022/08/28 00:56:06;;;;;;;;;;;18.00;99.90;;;;;;5103311;28;20450;-80
2022/08/28 00:58:34;;;;;;;;;;;18.00;99.90;;;;;;5093171;28;19989;-81
2022/08/28 01:01:01;;;;;;;;;;;17.90;99.90;;;;;;5096726;28;19932;-80
2022/08/28 01:03:29;;;;;;;;;;;17.80;99.90;;;;;;5090012;28;19925;-81
2022/08/28 01:05:56;;;;;;;;;;;17.80;99.90;;;;;;5083590;28;19931;-81
2022/08/28 01:08:23;;;;;;;;;;;17.80;99.90;;;;;;5081369;28;20463;-79
2022/08/28 01:10:53;;;;;;;;;;;17.70;99.90;;;;;;5081618;28;19935;-80
2022/08/28 01:13:20;;;;;;;;;;;17.60;99.90;;;;;;5074058;28;19986;-80
2022/08/28 01:15:48;;;;;;;;;;;17.50;99.90;;;;;;5087442;28;20021;-79
2022/08/28 01:18:15;;;;;;;;;;;17.50;99.90;;;;;;5111748;28;19927;-80
2022/08/28 01:20:48;;;;;;;;;;;17.40;99.90;;;;;;5086240;28;19959;-79
2022/08/28 01:23:17;;;;;;;;;;;17.40;99.90;;;;;;5098945;28;19928;-79
2022/08/28 01:25:46;;;;;;;;;;;17.30;99.90;;;;;;5100945;28;19997;-79
2022/08/28 01:28:13;;;;;;;;;;;17.20;99.90;;;;;;5071368;28;19932;-78
2022/08/28 01:30:40;;;;;;;;;;;17.20;99.90;;;;;;5109007;28;19924;-79
2022/08/28 01:33:08;;;;;;;;;;;17.10;99.90;;;;;;5079679;28;19977;-79
2022/08/28 01:35:38;;;;;;;;;;;17.00;99.90;;;;;;5090445;28;19928;-80
2022/08/28 01:38:05;;;;;;;;;;;17.00;99.90;;;;;;5100129;28;19934;-80
2022/08/28 01:40:34;;;;;;;;;;;16.90;99.90;;;;;;5096213;28;20309;-78
2022/08/28 01:43:08;;;;;;;;;;;16.90;99.90;;;;;;5088615;28;20399;-79
2022/08/28 01:45:36;;;;;;;;;;;16.90;99.90;;;;;;5085919;28;20031;-79
2022/08/28 01:48:04;;;;;;;;;;;16.80;99.90;;;;;;5096141;28;19984;-79
2022/08/28 01:50:31;;;;;;;;;;;16.80;99.90;;;;;;5101087;28;19931;-79
2022/08/28 01:52:58;;;;;;;;;;;16.80;99.90;;;;;;5100353;28;19928;-79
2022/08/28 01:55:25;;;;;;;;;;;16.70;99.90;;;;;;5092593;28;20001;-82
2022/08/28 01:57:52;;;;;;;;;;;16.70;99.90;;;;;;5090688;28;20375;-76
2022/08/28 02:00:27;;;;;;;;;;;16.70;99.90;;;;;;5093881;28;19991;-77
2022/08/28 02:02:55;;;;;;;;;;;16.80;99.90;;;;;;5097717;28;20303;-78
2022/08/28 02:05:23;;;;;;;;;;;16.80;99.90;;;;;;5089021;28;19956;-78
2022/08/28 02:07:50;;;;;;;;;;;16.80;99.90;;;;;;5092884;28;20379;-79
2022/08/28 02:10:18;;;;;;;;;;;18.20;99.90;;;;;;5091491;28;19999;-78
2022/08/28 02:12:45;;;;;;;;;;;16.80;99.90;;;;;;5090381;28;20276;-78
2022/08/28 02:15:12;;;;;;;;;;;16.80;99.90;;;;;;5088519;28;19927;-78
2022/08/28 02:17:40;;;;;;;;;;;16.80;99.90;;;;;;5103533;28;20008;-78
2022/08/28 02:20:07;;;;;;;;;;;16.80;99.90;;;;;;5098053;28;19924;-78
2022/08/28 02:22:34;;;;;;;;;;;16.80;99.90;;;;;;5096257;28;19928;-78
2022/08/28 02:25:04;;;;;;;;;;;16.80;99.90;;;;;;5092877;28;19980;-78
2022/08/28 02:27:31;;;;;;;;;;;16.80;99.90;;;;;;5102327;28;19935;-78
2022/08/28 02:29:58;;;;;;;;;;;16.80;99.90;;;;;;5090932;28;19928;-78
2022/08/28 02:32:25;;;;;;;;;;;16.80;99.90;;;;;;5104688;28;19930;-78
2022/08/28 02:34:54;;;;;;;;;;;16.80;99.90;;;;;;5089421;28;19928;-79
2022/08/28 02:37:23;;;;;;;;;;;16.80;99.90;;;;;;5093023;28;19928;-78
2022/08/28 02:39:50;;;;;;;;;;;16.80;99.90;;;;;;5106325;28;19927;-78
2022/08/28 02:42:16;;;;;;;;;;;16.70;99.90;;;;;;5090399;28;19991;-79
2022/08/28 02:44:43;;;;;;;;;;;16.80;99.90;;;;;;5091551;28;19928;-79
2022/08/28 02:47:10;;;;;;;;;;;16.70;99.90;;;;;;5090766;28;20420;-78
2022/08/28 02:49:37;;;;;;;;;;;16.70;99.90;;;;;;5090887;28;19924;-78
2022/08/28 02:52:06;;;;;;;;;;;16.70;99.90;;;;;;5082197;28;19928;-78
2022/08/28 02:54:33;;;;;;;;;;;16.70;99.90;;;;;;5087199;28;20022;-77
2022/08/28 02:57:00;;;;;;;;;;;16.70;99.90;;;;;;5096388;28;19931;-78
2022/08/28 02:59:28;;;;;;;;;;;16.70;99.90;;;;;;5095659;28;19946;-79
2022/08/28 03:01:55;;;;;;;;;;;16.60;99.90;;;;;;5106047;28;19934;-77
2022/08/28 03:04:22;;;;;;;;;;;16.60;99.90;;;;;;5100581;28;19963;-77
2022/08/28 03:06:49;;;;;;;;;;;16.50;99.90;;;;;;5094453;28;19966;-77
2022/08/28 03:09:18;;;;;;;;;;;16.50;99.90;;;;;;5107732;28;19924;-76
2022/08/28 03:11:45;;;;;;;;;;;16.40;99.90;;;;;;5088614;28;19935;-77
2022/08/28 03:14:12;;;;;;;;;;;16.40;99.90;;;;;;5091353;28;19928;-77
2022/08/28 03:16:38;;;;;;;;;;;16.60;99.90;;;;;;5082519;28;19928;-78
2022/08/28 03:19:05;;;;;;;;;;;16.30;99.90;;;;;;5092121;28;19924;-78
2022/08/28 03:21:33;;;;;;;;;;;16.20;99.90;;;;;;5091828;28;20417;-78
2022/08/28 03:23:59;;;;;;;;;;;16.10;99.90;;;;;;5089434;28;19943;-77
2022/08/28 03:26:28;;;;;;;;;;;16.10;99.90;;;;;;5090933;28;20001;-77
2022/08/28 03:28:56;;;;;;;;;;;16.10;99.90;;;;;;5091620;28;19950;-77
2022/08/28 03:31:24;;;;;;;;;;;16.10;99.90;;;;;;5087821;28;20026;-77
2022/08/28 03:33:52;;;;;;;;;;;16.10;99.90;;;;;;5094756;28;20018;-77
2022/08/28 03:36:21;;;;;;;;;;;16.10;99.90;;;;;;5083812;28;20012;-78
2022/08/28 03:38:48;;;;;;;;;;;16.10;99.90;;;;;;5090848;28;19947;-78
2022/08/28 03:41:16;;;;;;;;;;;16.10;99.90;;;;;;5092991;28;19982;-78
2022/08/28 03:43:44;;;;;;;;;;;16.00;99.90;;;;;;5107659;28;19948;-80
2022/08/28 03:46:13;;;;;;;;;;;16.10;99.90;;;;;;5098009;28;19932;-81
2022/08/28 03:48:40;;;;;;;;;;;16.00;99.90;;;;;;5113112;28;19931;-78
2022/08/28 03:51:07;;;;;;;;;;;16.00;99.90;;;;;;5100594;28;19947;-78
2022/08/28 03:53:34;;;;;;;;;;;15.90;99.90;;;;;;5089314;28;19924;-77
2022/08/28 03:56:01;;;;;;;;;;;15.90;99.90;;;;;;5088688;28;19932;-77
2022/08/28 03:58:29;;;;;;;;;;;15.80;99.90;;;;;;5098694;28;19963;-78
2022/08/28 04:00:57;;;;;;;;;;;15.80;99.90;;;;;;5100539;28;19927;-79
2022/08/28 04:03:24;;;;;;;;;;;;;;;;;;5093817;28;19959;-78
2022/08/28 04:05:51;;;;;;;;;;;15.70;99.90;;;;;;5094020;28;19979;-78
2022/08/28 04:08:20;;;;;;;;;;;15.70;99.90;;;;;;5083351;28;19932;-78
2022/08/28 04:10:47;;;;;;;;;;;15.60;99.90;;;;;;5099701;28;19934;-78
2022/08/28 04:13:15;;;;;;;;;;;15.70;99.90;;;;;;5104250;28;19935;-78
2022/08/28 04:15:41;;;;;;;;;;;15.60;99.90;;;;;;5099313;28;19931;-78
2022/08/28 04:18:10;;;;;;;;;;;15.60;99.90;;;;;;5102259;28;19928;-78
2022/08/28 04:20:37;;;;;;;;;;;15.60;99.90;;;;;;5100183;28;19928;-78
2022/08/28 04:23:06;;;;;;;;;;;15.60;99.90;;;;;;5092109;28;19964;-78
2022/08/28 04:25:33;;;;;;;;;;;15.70;99.90;;;;;;5081223;28;19928;-78
2022/08/28 04:28:00;;;;;;;;;;;15.70;99.90;;;;;;5102248;28;20030;-79
2022/08/28 04:30:27;;;;;;;;;;;15.70;99.90;;;;;;5096635;28;19955;-78
2022/08/28 04:32:54;;;;;;;;;;;15.80;99.90;;;;;;5088750;28;20390;-78
2022/08/28 04:35:22;;;;;;;;;;;15.80;99.90;;;;;;5087761;28;19950;-78
2022/08/28 04:37:49;;;;;;;;;;;15.80;99.90;;;;;;5102223;28;19928;-78
2022/08/28 04:40:18;;;;;;;;;;;15.80;99.90;;;;;;5092802;28;19928;-79
2022/08/28 04:42:46;;;;;;;;;;;15.80;99.90;;;;;;5096235;28;19950;-79
2022/08/28 04:45:13;;;;;;;;;;;15.80;99.90;;;;;;5095393;28;19928;-80
2022/08/28 04:47:40;;;;;;;;;;;15.80;99.90;;;;;;5112616;28;20362;-80
2022/08/28 04:50:07;;;;;;;;;;;15.70;99.90;;;;;;5108003;28;20302;-80
2022/08/28 04:52:36;;;;;;;;;;;15.70;99.90;;;;;;5089837;28;19936;-79
2022/08/28 04:55:03;;;;;;;;;;;15.60;99.90;;;;;;5094917;28;19948;-79
2022/08/28 04:57:30;;;;;;;;;;;15.60;99.90;;;;;;5087493;28;19928;-78
2022/08/28 04:59:57;;;;;;;;;;;15.60;99.90;;;;;;5074916;28;19960;-78
2022/08/28 05:02:24;;;;;;;;;;;15.60;99.90;;;;;;5069511;28;19986;-78
2022/08/28 05:04:51;;;;;;;;;;;15.70;99.90;;;;;;5092937;28;19946;-79
2022/08/28 05:07:18;;;;;;;;;;;15.70;99.90;;;;;;5091221;28;19934;-78
2022/08/28 05:09:47;;;;;;;;;;;15.70;99.90;;;;;;5100506;28;19927;-78
2022/08/28 05:12:16;;;;;;;;;;;15.70;99.90;;;;;;5113089;28;19924;-79
2022/08/28 05:14:43;;;;;;;;;;;15.70;99.90;;;;;;5101558;28;19932;-78
2022/08/28 05:17:11;;;;;;;;;;;15.70;99.90;;;;;;5084962;28;19924;-77
2022/08/28 05:19:39;;;;;;;;;;;15.80;99.90;;;;;;5097828;28;19934;-78
2022/08/28 05:22:06;;;;;;;;;;;15.90;99.90;;;;;;5095520;28;19935;-78
2022/08/28 05:24:33;;;;;;;;;;;15.90;99.90;;;;;;5108799;28;19931;-79
2022/08/28 05:27:02;;;;;;;;;;;15.90;99.90;;;;;;5112105;27;19988;-78
2022/08/28 05:29:29;;;;;;;;;;;16.00;99.90;;;;;;5102970;28;20027;-77
2022/08/28 05:31:56;;;;;;;;;;;16.10;99.90;;;;;;5091492;28;20529;-77
2022/08/28 05:34:23;;;;;;;;;;;16.30;99.90;;;;;;5088777;28;20624;-77
2022/08/28 05:36:50;;;;;;;;;;;16.30;99.90;;;;;;5090489;28;20636;-77
2022/08/28 05:39:17;;;;;;;;;;;16.40;99.90;;;;;;5091419;28;19927;-77
2022/08/28 05:41:47;;;;;;;;;;;16.50;99.90;;;;;;5090964;28;20352;-77
2022/08/28 05:44:17;;;;;;;;;;;16.50;99.90;;;;;;5088316;28;19931;-78
2022/08/28 05:46:46;;;;;;;;;;;16.60;99.90;;;;;;5093408;28;19931;-77
2022/08/28 05:49:13;;;;;;;;;;;16.70;99.90;;;;;;5089325;28;20022;-77
2022/08/28 05:51:41;;;;;;;;;;;16.80;99.90;;;;;;5091818;28;19924;-78
2022/08/28 05:54:08;;;;;;;;;;;16.90;99.90;;;;;;5104010;28;19935;-76
2022/08/28 05:56:37;;;;;;;;;;;17.00;99.90;;;;;;5095862;28;20305;-76
2022/08/28 05:59:04;;;;;;;;;;;17.10;99.90;;;;;;5094905;28;19928;-76
2022/08/28 06:01:33;;;;;;;;;;;17.40;99.90;;;;;;5088229;28;19939;-77
2022/08/28 06:04:01;;;;;;;;;;;17.60;99.90;;;;;;5097254;28;20009;-77
2022/08/28 06:06:29;;;;;;;;;;;17.90;99.90;;;;;;5087417;28;20024;-78
2022/08/28 06:08:56;;;;;;;;;;;18.20;99.90;;;;;;5101807;28;19924;-78
2022/08/28 06:11:23;;;;;;;;;;;19.40;99.90;;;;;;5107277;28;19931;-79
2022/08/28 06:13:50;;;;;;;;;;;19.10;99.90;;;;;;5101624;28;19924;-78
2022/08/28 06:16:17;;;;;;;;;;;20.20;99.90;;;;;;5083653;28;19932;-78
2022/08/28 06:18:46;;;;;;;;;;;21.60;99.90;;;;;;5090283;28;20391;-77
2022/08/28 06:21:13;;;;;;;;;;;22.80;99.90;;;;;;5084667;28;20133;-78
2022/08/28 06:23:40;;;;;;;;;;;23.60;99.90;;;;;;5081527;28;19939;-77
2022/08/28 06:26:07;;;;;;;;;;;23.70;99.90;;;;;;5092573;28;19928;-77
2022/08/28 06:28:34;;;;;;;;;;;24.10;99.90;;;;;;5084814;28;19928;-78
2022/08/28 06:31:02;;;;;;;;;;;24.70;99.90;;;;;;5090800;28;19959;-78
2022/08/28 06:33:30;;;;;;;;;;;24.70;99.90;;;;;;5088397;28;19932;-78
2022/08/28 06:35:58;;;;;;;;;;;24.70;99.90;;;;;;5091842;28;19924;-79
2022/08/28 06:38:27;;;;;;;;;;;24.10;99.90;;;;;;5085763;28;19924;-79
2022/08/28 06:40:55;;;;;;;;;;;23.10;99.90;;;;;;5086694;28;20315;-78
2022/08/28 06:43:23;;;;;;;;;;;23.10;99.90;;;;;;5086778;28;19928;-77
2022/08/28 06:45:53;;;;;;;;;;;22.60;99.90;;;;;;5099359;28;20399;-80
2022/08/28 06:48:21;;;;;;;;;;;22.40;99.90;;;;;;5072420;28;20027;-79
2022/08/28 06:50:49;;;;;;;;;;;22.80;99.90;;;;;;5080179;28;19931;-77
2022/08/28 06:53:18;;;;;;;;;;;22.80;99.90;;;;;;5079895;28;19932;-78
2022/08/28 06:55:45;;;;;;;;;;;22.90;99.90;;;;;;5094422;28;20355;-78
2022/08/28 06:58:13;;;;;;;;;;;23.40;99.90;;;;;;5088999;28;19938;-78
2022/08/28 07:00:42;;;;;;;;;;;24.40;99.90;;;;;;5102086;28;20258;-77
2022/08/28 07:03:09;;;;;;;;;;;25.00;99.90;;;;;;5087922;28;19924;-77
2022/08/28 07:05:36;;;;;;;;;;;25.80;99.90;;;;;;5091152;28;20583;-80
2022/08/28 07:08:03;;;;;;;;;;;26.80;99.90;;;;;;5091053;28;19932;-79
2022/08/28 07:10:32;;;;;;;;;;;27.40;99.90;;;;;;5097159;28;20430;-81
2022/08/28 07:12:59;;;;;;;;;;;28.20;99.90;;;;;;5089553;28;20023;-81
2022/08/28 07:15:26;;;;;;;;;;;28.90;99.90;;;;;;5082596;28;20384;-80
2022/08/28 07:17:53;;;;;;;;;;;29.40;99.90;;;;;;5103553;28;20479;-79
2022/08/28 07:20:20;;;;;;;;;;;29.20;99.90;;;;;;5111093;28;19953;-85
2022/08/28 07:22:51;;;;;;;;;;;29.40;99.90;;;;;;5091293;28;19928;-81
2022/08/28 07:25:18;;;;;;;;;;;29.50;99.90;;;;;;5098742;28;20038;-82
2022/08/28 07:27:46;;;;;;;;;;;29.60;99.90;;;;;;5074564;28;19987;-81
2022/08/28 07:30:13;;;;;;;;;;;29.50;99.30;;;;;;5090797;28;19933;-81
2022/08/28 07:32:40;;;;;;;;;;;29.90;99.40;;;;;;5092816;28;20045;-81
2022/08/28 07:35:09;;;;;;;;;;;29.90;96.60;;;;;;5075613;28;19924;-81
2022/08/28 07:37:36;;;;;;;;;;;29.80;97.00;;;;;;5086447;28;19942;-81
2022/08/28 07:40:04;;;;;;;;;;;28.80;95.00;;;;;;5093799;28;19928;-81
2022/08/28 07:45:19;;;;;;;;;;;29.00;96.30;;;;;;5095717;28;19930;-82
2022/08/28 07:47:46;;;;;;;;;;;29.40;95.30;;;;;;5093129;28;19928;-80
2022/08/28 07:50:14;;;;;;;;;;;29.40;93.70;;;;;;5108127;28;19981;-78
2022/08/28 07:52:41;;;;;;;;;;;29.00;92.00;;;;;;5084405;28;19928;-81
2022/08/28 07:55:08;;;;;;;;;;;28.50;92.50;;;;;;5116177;27;19928;-81
2022/08/28 07:57:35;;;;;;;;;;;28.30;93.00;;;;;;5076552;28;19930;-78
2022/08/28 08:00:02;;;;;;;;;;;28.30;93.60;;;;;;5092826;28;20379;-77
2022/08/28 08:02:39;;;;;;;;;;;28.70;93.90;;;;;;5090612;28;19988;-77
2022/08/28 08:05:06;;;;;;;;;;;28.80;90.80;;;;;;5104793;28;20406;-78
2022/08/28 08:07:38;;;;;;;;;;;28.50;90.80;;;;;;5090230;28;20402;-78
2022/08/28 08:10:10;;;;;;;;;;;28.20;92.10;;;;;;5081011;28;19964;-77
2022/08/28 08:12:41;;;;;;;;;;;27.90;90.40;;;;;;5093013;28;19957;-77
2022/08/28 08:15:13;;;;;;;;;;;27.80;90.80;;;;;;5087450;28;19924;-78
2022/08/28 08:17:47;;;;;;;;;;;27.50;91.10;;;;;;5092629;28;20018;-77
2022/08/28 08:20:24;;;;;;;;;;;27.20;91.40;;;;;;5091181;28;20014;-77
2022/08/28 08:22:59;;;;;;;;;;;27.10;92.30;;;;;;5089369;28;20013;-77
2022/08/28 08:25:32;;;;;;;;;;;27.30;91.40;;;;;;5092040;28;19927;-78
2022/08/28 08:27:59;;;;;;;;;;;27.10;90.70;;;;;;5095455;28;19970;-78
2022/08/28 08:30:29;;;;;;;;;;;26.40;90.50;;;;;;5102255;28;19928;-78
2022/08/28 08:33:00;;;;;;;;;;;25.70;91.50;;;;;;5091327;28;19928;-79
2022/08/28 08:35:27;;;;;;;;;;;25.40;92.10;;;;;;5091668;28;20350;-77
2022/08/28 08:37:59;;;;;;;;;;;25.30;92.30;;;;;;5090214;28;19924;-77
2022/08/28 08:40:27;;;;;;;;;;;25.10;93.00;;;;;;5088434;28;20000;-77
2022/08/28 08:42:55;;;;;;;;;;;;;;;;;;5090320;28;19939;-78
2022/08/28 08:45:25;;;;;;;;;;;25.40;92.60;;;;;;5109110;28;19932;-78
2022/08/28 08:47:54;;;;;;;;;;;25.50;93.10;;;;;;5108613;28;19982;-77
2022/08/28 08:50:24;;;;;;;;;;;25.90;93.50;;;;;;5089270;28;19955;-77
2022/08/28 08:53:06;;;;;;;;;;;26.10;92.10;;;;;;5089578;28;20249;-77
2022/08/28 08:55:35;;;;;;;;;;;25.80;91.50;;;;;;5088732;28;19932;-77
2022/08/28 08:58:04;;;;;;;;;;;25.50;91.90;;;;;;5086364;28;20330;-77
2022/08/28 09:00:34;;;;;;;;;;;25.50;92.80;;;;;;5093961;28;20018;-77
2022/08/28 09:03:08;;;;;;;;;;;25.60;93.00;;;;;;5103874;28;19934;-77
2022/08/28 09:05:42;;;;;;;;;;;26.30;92.80;;;;;;5092163;28;19978;-77
2022/08/28 09:08:23;;;;;;;;;;;26.30;92.70;;;;;;5085529;28;19928;-79
2022/08/28 09:11:00;;;;;;;;;;;26.70;92.40;;;;;;5074597;28;20319;-78
2022/08/28 09:13:31;;;;;;;;;;;26.80;91.00;;;;;;5080421;28;20024;-77
2022/08/28 09:16:00;;;;;;;;;;;26.60;90.70;;;;;;5090647;28;20417;-78
2022/08/28 09:18:32;;;;;;;;;;;26.70;91.20;;;;;;5091137;28;19951;-78
2022/08/28 09:21:11;;;;;;;;;;;26.70;91.50;;;;;;5097174;28;19924;-78
2022/08/28 09:23:38;;;;;;;;;;;26.70;90.00;;;;;;5092452;28;19931;-78
2022/08/28 09:26:21;;;;;;;;;;;26.70;90.20;;;;;;5108226;28;19927;-78
2022/08/28 09:29:00;;;;;;;;;;;26.60;90.60;;;;;;5086943;28;19978;-78
2022/08/28 09:31:32;;;;;;;;;;;26.60;90.70;;;;;;5101017;28;19928;-77
2022/08/28 09:34:21;;;;;;;;;;;26.20;90.10;;;;;;5087897;28;19992;-78
2022/08/28 09:37:01;;;;;;;;;;;25.80;88.80;;;;;;5071615;28;20395;-80
2022/08/28 09:39:29;;;;;;;;;;;25.80;89.40;;;;;;5087646;28;19924;-80
2022/08/28 09:44:56;;;;;;;;;;;24.30;90.10;;;;;;5635120;22;19911;-79
2022/08/28 09:47:44;;;;;;;;;;;24.30;90.50;;;;;;5065062;28;20322;-79
2022/08/28 09:50:15;;;;;;;;;;;23.90;91.10;;;;;;5063929;28;20488;-78
2022/08/28 09:52:45;;;;;;;;;;;23.60;91.50;;;;;;5063888;28;19929;-79
2022/08/28 09:55:18;;;;;;;;;;;23.50;92.00;;;;;;5074640;28;19928;-79
2022/08/28 09:57:47;;;;;;;;;;;23.40;92.30;;;;;;5084478;28;19925;-79
2022/08/28 10:00:15;;;;;;;;;;;23.40;92.40;;;;;;5071241;28;19952;-79
2022/08/28 10:02:45;;;;;;;;;;;23.30;92.40;;;;;;5074770;28;19932;-79
2022/08/28 10:05:17;;;;;;;;;;;23.30;93.30;;;;;;5069988;28;20303;-80
2022/08/28 10:07:52;;;;;;;;;;;23.20;92.40;;;;;;5070215;28;20497;-80
2022/08/28 10:10:22;;;;;;;;;;;23.10;92.70;;;;;;5092469;28;19928;-79
2022/08/28 10:12:54;;;;;;;;;;;23.00;93.00;;;;;;5072266;28;19999;-80
2022/08/28 10:15:26;;;;;;;;;;;23.00;92.80;;;;;;5066000;28;19920;-80
2022/08/28 10:18:02;;;;;;;;;;;23.00;93.40;;;;;;5058909;28;19917;-80
2022/08/28 10:20:32;;;;;;;;;;;23.10;93.50;;;;;;5057878;28;20297;-80
2022/08/28 10:23:06;;;;;;;;;;;23.20;93.20;;;;;;5067153;28;19921;-81
2022/08/28 10:25:38;;;;;;;;;;;23.20;93.20;;;;;;5065680;28;19925;-80
2022/08/28 10:28:13;;;;;;;;;;;23.10;92.50;;;;;;5056898;28;20011;-80
2022/08/28 10:30:44;;;;;;;;;;;23.10;92.80;;;;;;5066860;28;19929;-81
2022/08/28 10:33:21;;;;;;;;;;;23.50;93.30;;;;;;5071743;28;20365;-80
2022/08/28 10:35:51;;;;;;;;;;;23.30;93.20;;;;;;5079664;28;19928;-78
2022/08/28 10:38:23;;;;;;;;;;;23.30;93.40;;;;;;5069769;28;19982;-81
2022/08/28 10:40:53;;;;;;;;;;;23.40;93.20;;;;;;5079184;28;19933;-80
2022/08/28 10:43:23;;;;;;;;;;;23.60;93.50;;;;;;5074659;28;19932;-82
2022/08/28 10:45:53;;;;;;;;;;;23.70;93.10;;;;;;5070575;28;19964;-82
2022/08/28 10:48:23;;;;;;;;;;;23.80;92.80;;;;;;5061555;28;20223;-81
2022/08/28 10:50:52;;;;;;;;;;;23.70;92.50;;;;;;5065719;28;19929;-81
2022/08/28 10:53:23;;;;;;;;;;;23.70;92.50;;;;;;5078593;28;19925;-81
2022/08/28 10:55:54;;;;;;;;;;;23.60;92.10;;;;;;5079120;28;19947;-81
2022/08/28 10:58:22;;;;;;;;;;;23.50;92.30;;;;;;5063988;28;20015;-82
2022/08/28 11:00:49;;;;;;;;;;;23.50;92.60;;;;;;5073115;28;20304;-81
2022/08/28 11:03:19;;;;;;;;;;;23.60;92.90;;;;;;5080605;28;19955;-81
2022/08/28 11:05:49;;;;;;;;;;;23.80;92.40;;;;;;5072174;28;19928;-82
2022/08/28 11:08:21;;;;;;;;;;;23.90;92.30;;;;;;5084213;28;19929;-82
2022/08/28 11:10:51;;;;;;;;;;;24.10;92.60;;;;;;5080285;28;20013;-82
2022/08/28 11:13:37;;;;;;;;;;;24.30;92.50;;;;;;5065441;28;19925;-83
2022/08/28 11:16:10;;;;;;;;;;;24.30;92.30;;;;;;5089604;28;19925;-82
2022/08/28 11:18:55;;;;;;;;;;;24.40;92.40;;;;;;5080072;28;20668;-82
2022/08/28 11:21:25;;;;;;;;;;;25.60;92.10;;;;;;5088352;28;20441;-82
2022/08/28 11:23:56;;;;;;;;;;;24.30;91.60;;;;;;5073585;28;19925;-82
2022/08/28 11:26:29;;;;;;;;;;;24.30;92.00;;;;;;5076737;28;19966;-82
2022/08/28 11:28:56;;;;;;;;;;;24.60;92.10;;;;;;5085836;28;19944;-79
2022/08/28 11:31:29;;;;;;;;;;;24.80;91.60;;;;;;5092379;28;19935;-79
2022/08/28 11:33:58;;;;;;;;;;;25.00;91.70;;;;;;5082603;28;19929;-83
2022/08/28 11:36:40;;;;;;;;;;;25.10;91.50;;;;;;5087466;28;19936;-80
2022/08/28 11:39:18;;;;;;;;;;;25.30;91.40;;;;;;5057724;28;20299;-80
2022/08/28 11:42:00;;;;;;;;;;;25.50;90.80;;;;;;5073944;28;19928;-80
2022/08/28 11:44:38;;;;;;;;;;;25.60;90.10;;;;;;5080076;28;19950;-81
2022/08/28 11:47:24;;;;;;;;;;;25.60;90.10;;;;;;5085937;28;19944;-81
2022/08/28 11:49:51;;;;;;;;;;;25.80;90.40;;;;;;5084461;28;19924;-82
2022/08/28 11:52:30;;;;;;;;;;;25.80;88.70;;;;;;5085888;28;20012;-81
2022/08/28 11:55:00;;;;;;;;;;;25.80;88.90;;;;;;5071079;28;19951;-80
2022/08/28 11:57:31;;;;;;;;;;;25.80;89.70;;;;;;5070771;28;20418;-79
2022/08/28 12:00:09;;;;;;;;;;;26.10;89.80;;;;;;5049859;28;19929;-79
2022/08/28 12:02:50;;;;;;;;;;;26.30;88.00;;;;;;5049589;28;19929;-79
2022/08/28 12:05:36;;;;;;;;;;;26.20;87.10;;;;;;5049434;28;19933;-79
2022/08/28 12:08:04;;;;;;;;;;;26.10;87.60;;;;;;5049792;28;19974;-79
2022/08/28 12:10:53;;;;;;;;;;;26.20;87.60;;;;;;5049050;28;20415;-79
2022/08/28 12:13:38;;;;;;;;;;;26.20;87.10;;;;;;5050320;28;19929;-79
2022/08/28 12:16:07;;;;;;;;;;;26.40;87.90;;;;;;5067646;28;20553;-79
2022/08/28 12:18:53;;;;;;;;;;;26.50;85.80;;;;;;5051653;28;19936;-80
2022/08/28 12:21:21;;;;;;;;;;;26.60;86.30;;;;;;5068404;28;20416;-77
2022/08/28 12:23:56;;;;;;;;;;;26.90;86.40;;;;;;5049690;28;19929;-77
2022/08/28 12:26:25;;;;;;;;;;;26.90;85.80;;;;;;5049805;28;19990;-79
2022/08/28 12:28:54;;;;;;;;;;;27.10;85.90;;;;;;5049400;28;19929;-79
2022/08/28 12:34:41;;;;;;;;;;;27.40;85.30;;;;;;5066276;28;20396;-78
2022/08/28 12:37:20;;;;;;;;;;;27.40;84.50;;;;;;5049921;28;20315;-79
2022/08/28 12:39:47;;;;;;;;;;;27.70;83.90;;;;;;5049236;28;20362;-80
2022/08/28 12:42:16;;;;;;;;;;;27.70;82.20;;;;;;5050317;28;20466;-79
2022/08/28 12:44:44;;;;;;;;;;;27.60;81.50;;;;;;5050570;28;19978;-80
2022/08/28 12:47:11;;;;;;;;;;;27.20;80.30;;;;;;5051241;28;20050;-79
2022/08/28 12:49:40;;;;;;;;;;;27.00;81.50;;;;;;5050349;28;19932;-79
2022/08/28 12:52:08;;;;;;;;;;;27.00;82.20;;;;;;5051902;28;19928;-79
2022/08/28 12:54:35;;;;;;;;;;;27.10;81.90;;;;;;5053369;28;19948;-80
2022/08/28 12:57:04;;;;;;;;;;;27.30;81.90;;;;;;5052848;28;20048;-80
2022/08/28 12:59:34;;;;;;;;;;;27.50;82.30;;;;;;5052723;28;19925;-80
2022/08/28 13:02:01;;;;;;;;;;;27.70;82.80;;;;;;5051717;28;20304;-79
2022/08/28 13:04:32;;;;;;;;;;;27.90;82.00;;;;;;5052330;28;19928;-80
2022/08/28 13:07:03;;;;;;;;;;;28.10;81.20;;;;;;5052056;28;19980;-80
2022/08/28 13:09:30;;;;;;;;;;;28.30;81.90;;;;;;5058207;28;20529;-81
2022/08/28 13:11:57;;;;;;;;;;;28.50;80.20;;;;;;5054577;28;19957;-81
2022/08/28 13:14:36;;;;;;;;;;;28.40;78.50;;;;;;5071713;28;19971;-81
2022/08/28 13:17:04;;;;;;;;;;;28.20;77.20;;;;;;5072535;28;19928;-79
2022/08/28 13:19:32;;;;;;;;;;;28.00;78.10;;;;;;5072323;28;20427;-79
2022/08/28 13:22:02;;;;;;;;;;;28.10;78.70;;;;;;5088583;28;19928;-79
2022/08/28 13:24:45;;;;;;;;;;;28.30;78.70;;;;;;5072501;28;19928;-79
2022/08/28 13:27:21;;;;;;;;;;;28.50;78.10;;;;;;5069383;28;19976;-79
2022/08/28 13:29:53;;;;;;;;;;;28.50;77.10;;;;;;5071467;28;19925;-81
2022/08/28 13:32:20;;;;;;;;;;;28.10;75.70;;;;;;5074772;28;19951;-80
2022/08/28 13:35:05;;;;;;;;;;;27.60;75.40;;;;;;5061745;28;19932;-80
2022/08/28 13:37:44;;;;;;;;;;;27.20;75.90;;;;;;5071622;28;19982;-79
2022/08/28 13:40:12;;;;;;;;;;;26.90;77.30;;;;;;5071797;28;20307;-80
2022/08/28 13:42:39;;;;;;;;;;;26.90;77.90;;;;;;5078214;28;19928;-80
2022/08/28 13:45:07;;;;;;;;;;;27.10;78.00;;;;;;5062337;28;19929;-79
2022/08/28 13:47:34;;;;;;;;;;;27.30;77.00;;;;;;5065948;28;19929;-79
2022/08/28 13:50:01;;;;;;;;;;;27.40;76.30;;;;;;5048273;28;19925;-80
2022/08/28 13:52:27;;;;;;;;;;;27.40;76.30;;;;;;5063578;28;20077;-80
2022/08/28 13:54:56;;;;;;;;;;;27.50;76.90;;;;;;5070864;28;20013;-80
2022/08/28 13:57:23;;;;;;;;;;;27.60;77.10;;;;;;5065882;28;20295;-78
2022/08/28 13:59:50;;;;;;;;;;;27.60;74.70;;;;;;5052181;28;19928;-78
2022/08/28 14:05:01;;;;;;;;;;;27.20;75.40;;;;;;5056250;28;20273;-78
2022/08/28 14:07:28;;;;;;;;;;;27.20;75.20;;;;;;5075164;28;20000;-78
2022/08/28 14:09:57;;;;;;;;;;;27.20;75.20;;;;;;5068248;28;20574;-78
2022/08/28 14:12:24;;;;;;;;;;;27.20;75.10;;;;;;5069529;28;19929;-79
2022/08/28 14:14:51;;;;;;;;;;;27.20;75.10;;;;;;5077479;28;19925;-78
2022/08/28 14:17:20;;;;;;;;;;;27.30;75.70;;;;;;5049106;28;19931;-79
2022/08/28 14:19:47;;;;;;;;;;;27.40;75.50;;;;;;5048105;28;19956;-79
2022/08/28 14:22:13;;;;;;;;;;;27.40;74.60;;;;;;5066615;28;19929;-78
2022/08/28 14:24:41;;;;;;;;;;;27.30;74.80;;;;;;5051300;28;19950;-79
2022/08/28 14:27:09;;;;;;;;;;;27.30;74.80;;;;;;5082696;28;19925;-79
2022/08/28 14:29:37;;;;;;;;;;;27.30;75.50;;;;;;5052511;28;20031;-78
2022/08/28 14:32:05;;;;;;;;;;;27.40;74.80;;;;;;5069784;28;20559;-79
2022/08/28 14:34:32;;;;;;;;;;;27.40;74.80;;;;;;5050668;28;19986;-78
2022/08/28 14:37:00;;;;;;;;;;;27.40;75.00;;;;;;5072176;28;19928;-78
2022/08/28 14:39:27;;;;;;;;;;;27.60;74.70;;;;;;5054843;28;19928;-78
2022/08/28 14:41:54;;;;;;;;;;;27.70;74.80;;;;;;5047248;28;19933;-77
2022/08/28 14:44:23;;;;;;;;;;;27.70;74.80;;;;;;5066660;28;19928;-78
2022/08/28 14:46:51;;;;;;;;;;;27.80;75.00;;;;;;5082181;28;19928;-78